KSAV/SAV METAR and TAF weather

Enter ICAO airport designator
Station Type Date Time Source
KSAV METAR 2020/02/25 11:53 UTC NOAA

KSAV 251153Z 18010KT 10SM -RA FEW065 OVC100 17/16 A2987 RMK AO2 RAB26 SLP113 P0001 60066 70076 T01670156 10167 20156 58017


Station Type Date Time Source
KSAV Decoded METAR 2020/02/25 11:53 UTC NOAA

SAVANNAH INTERNATIONAL AIRPORT , GA, United States (KSAV) 32-07N 81-12W 14M
Feb 25, 2020 - 06:53 AM EST / 2020.02.25 1153 UTC
Wind: from the S (180 degrees) at 12 MPH (10 KT):0
Visibility: 10 mile(s):0
Sky conditions: overcast
Weather: light rain
Precipitation last hour: 0.01 inches
Temperature: 62.1 F (16.7 C)
Dew Point: 60.1 F (15.6 C)
Relative Humidity: 93%
Pressure (altimeter): 29.87 in. Hg (1011 hPa)
Pressure tendency: 0.05 inches (1.7 hPa) lower than three hours ago
ob: KSAV 251153Z 18010KT 10SM -RA FEW065 OVC100 17/16 A2987 RMK AO2 RAB26 SLP113 P0001 60066 70076 T01670156 10167 20156 58017
cycle: 12

Station Type Date Time Source
KSAV TAF 2020/02/25 12:37 UTC NOAA

TAF KSAV 251134Z 2512/2612 19007KT 6SM -RA BR SCT009 OVC060
FM251500 20011KT P6SM VCSH SCT015 OVC100
FM252000 21008KT P6SM -SHRA BKN015 OVC120
FM260200 20006KT 6SM BR SCT007 OVC100

Example: see airport list